Terminal Aerodrome Forecast
Issued by NWS Brownsville, TX

Home | Current Version | Previous Version | Text Only | Print | Product List | Glossary On
Versions: 1 2 3 4 5 6 7 8 9 10 11 12 13 14 15 16 17 18
000
FTUS44 KBRO 240527
TAFBRO
TAF
KBRO 240527Z 2406/2506 16008KT P6SM SKC
     FM241200 16012G18KT P6SM SKC
     FM241800 17025G32KT P6SM FEW050
     FM250000 16015G20KT P6SM SCT040=

USA.gov is the U.S. government's official web portal to all federal, state and local government web resources and services.